createdAt,value
2022-11-23T00:01:21.905Z,121.80
2022-11-23T00:03:50.596Z,107.10
2022-11-23T00:06:17.789Z,110.75
2022-11-23T00:08:44.446Z,120.57
2022-11-23T00:11:11.257Z,112.53
2022-11-23T00:13:40.431Z,111.50
2022-11-23T00:16:08.883Z,119.28
2022-11-23T00:18:35.712Z,113.45
2022-11-23T00:21:09.544Z,117.50
2022-11-23T00:23:36.667Z,115.97
2022-11-23T00:26:04.126Z,116.05
2022-11-23T00:28:30.737Z,112.85
2022-11-23T00:30:57.637Z,111.10
2022-11-23T00:33:24.191Z,114.00
2022-11-23T00:36:01.068Z,111.95
2022-11-23T00:38:28.653Z,109.25
2022-11-23T00:41:06.621Z,107.90
2022-11-23T00:43:33.517Z,116.00
2022-11-23T00:46:08.772Z,108.65
2022-11-23T00:48:35.599Z,111.15
2022-11-23T00:51:04.139Z,109.93
2022-11-23T00:53:30.804Z,119.30
2022-11-23T00:55:57.865Z,118.40
2022-11-23T00:58:25.187Z,113.32
2022-11-23T01:01:00.914Z,107.20
2022-11-23T01:03:29.065Z,115.40
2022-11-23T01:05:55.933Z,114.80
2022-11-23T01:08:22.403Z,107.63
2022-11-23T01:10:48.801Z,110.50
2022-11-23T01:13:15.412Z,110.32
2022-11-23T01:15:49.277Z,118.28
2022-11-23T01:18:15.731Z,106.68
2022-11-23T01:20:42.134Z,113.78
2022-11-23T01:23:08.548Z,112.97
2022-11-23T01:25:36.486Z,101.90
2022-11-23T01:28:03.166Z,104.97
2022-11-23T01:30:29.585Z,93.18
2022-11-23T01:32:56.046Z,106.20
2022-11-23T01:35:22.694Z,102.05
2022-11-23T01:37:49.168Z,99.70
2022-11-23T01:40:15.949Z,103.65
2022-11-23T01:43:00.500Z,94.35
2022-11-23T01:45:55.732Z,95.93
2022-11-23T01:48:29.876Z,102.80
2022-11-23T01:50:59.072Z,96.38
2022-11-23T01:53:27.359Z,107.05
2022-11-23T01:55:57.705Z,100.47
2022-11-23T01:58:26.587Z,94.00
2022-11-23T02:00:53.163Z,98.88
2022-11-23T02:03:19.953Z,100.80
2022-11-23T02:09:31.260Z,92.13
2022-11-23T02:11:58.609Z,96.03
2022-11-23T02:14:25.768Z,96.15
2022-11-23T02:16:52.235Z,90.57
2022-11-23T02:19:38.783Z,92.05
2022-11-23T02:22:12.461Z,88.88
2022-11-23T02:24:45.196Z,88.07
2022-11-23T02:27:11.728Z,96.40
2022-11-23T02:29:38.265Z,96.50
2022-11-23T02:32:05.030Z,82.20
2022-11-23T02:34:31.447Z,90.32
2022-11-23T02:36:57.975Z,88.70
2022-11-23T02:39:40.628Z,89.78
2022-11-23T02:42:07.053Z,88.10
2022-11-23T02:44:51.300Z,93.63
2022-11-23T02:47:17.752Z,90.70
2022-11-23T02:49:47.569Z,90.07
2022-11-23T02:52:14.339Z,86.18
2022-11-23T02:54:40.859Z,89.47
2022-11-23T02:57:08.165Z,89.00
2022-11-23T02:59:34.829Z,96.85
2022-11-23T03:02:02.650Z,91.45
2022-11-23T03:04:29.121Z,90.60
2022-11-23T03:06:56.005Z,90.20
2022-11-23T03:09:23.087Z,92.07
2022-11-23T03:11:49.627Z,91.05
2022-11-23T03:14:16.419Z,90.28
2022-11-23T03:16:42.889Z,89.78
2022-11-23T03:19:09.373Z,102.43
2022-11-23T03:21:36.812Z,100.55
2022-11-23T03:24:03.405Z,90.63
2022-11-23T03:26:29.830Z,97.97
2022-11-23T03:28:56.293Z,90.85
2022-11-23T03:31:22.770Z,84.70
2022-11-23T03:33:49.179Z,94.88
2022-11-23T03:36:15.580Z,95.05
2022-11-23T03:38:42.115Z,98.93
2022-11-23T03:41:09.344Z,102.60
2022-11-23T03:43:35.815Z,99.00
2022-11-23T03:46:02.321Z,89.55
2022-11-23T03:48:28.763Z,100.47
2022-11-23T03:50:55.157Z,91.57
2022-11-23T03:53:21.590Z,89.97
2022-11-23T03:55:48.050Z,92.70
2022-11-23T03:58:15.004Z,91.55
2022-11-23T04:00:41.747Z,90.90
2022-11-23T04:03:08.282Z,91.43
2022-11-23T04:05:34.730Z,85.72
2022-11-23T04:08:01.478Z,93.55
2022-11-23T04:10:28.088Z,85.30
2022-11-23T04:12:54.537Z,93.80
2022-11-23T04:15:21.081Z,93.35
2022-11-23T04:17:48.067Z,92.10
2022-11-23T04:20:14.981Z,81.40
2022-11-23T04:22:41.451Z,82.00
2022-11-23T04:25:08.356Z,82.20
2022-11-23T04:27:34.762Z,91.43
2022-11-23T04:30:01.265Z,81.65
2022-11-23T04:32:27.946Z,86.53
2022-11-23T04:34:54.401Z,91.07
2022-11-23T04:37:20.849Z,87.65
2022-11-23T04:39:47.587Z,86.82
2022-11-23T04:42:14.458Z,85.38
2022-11-23T04:44:40.943Z,85.57
2022-11-23T04:47:07.564Z,89.32
2022-11-23T04:49:34.252Z,91.15
2022-11-23T04:52:00.995Z,87.43
2022-11-23T04:54:27.461Z,92.55
2022-11-23T04:56:54.289Z,89.95
2022-11-23T04:59:22.176Z,88.78
2022-11-23T05:01:49.478Z,85.63
2022-11-23T05:04:17.864Z,88.72
2022-11-23T05:06:45.113Z,89.07
2022-11-23T05:09:11.913Z,80.13
2022-11-23T05:11:38.491Z,84.60
2022-11-23T05:14:05.137Z,89.70
2022-11-23T05:16:31.675Z,84.22
2022-11-23T05:18:58.128Z,82.70
2022-11-23T05:21:24.638Z,85.60
2022-11-23T05:23:51.254Z,80.13
2022-11-23T05:26:17.715Z,81.90
2022-11-23T05:28:44.132Z,76.22
2022-11-23T05:31:10.675Z,78.88
2022-11-23T05:33:37.362Z,71.07
2022-11-23T05:36:04.039Z,76.57
2022-11-23T05:38:30.497Z,78.80
2022-11-23T05:40:56.904Z,72.45
2022-11-23T05:43:23.377Z,73.70
2022-11-23T05:45:49.863Z,79.15
2022-11-23T05:48:16.490Z,78.72
2022-11-23T05:50:42.938Z,81.25
2022-11-23T05:53:10.052Z,77.93
2022-11-23T05:55:36.526Z,69.50
2022-11-23T05:58:03.869Z,80.88
2022-11-23T06:00:30.611Z,77.10
2022-11-23T06:03:03.346Z,77.20
2022-11-23T06:05:30.096Z,78.10
2022-11-23T06:07:56.559Z,80.63
2022-11-23T06:10:23.007Z,79.55
2022-11-23T06:12:50.103Z,75.03
2022-11-23T06:15:17.097Z,80.50
2022-11-23T06:17:43.620Z,81.85
2022-11-23T06:20:10.538Z,71.63
2022-11-23T06:22:36.969Z,75.30
2022-11-23T06:25:03.494Z,77.05
2022-11-23T06:27:29.947Z,79.03
2022-11-23T06:29:56.395Z,78.10
2022-11-23T06:32:22.974Z,74.60
2022-11-23T06:34:49.413Z,75.95
2022-11-23T06:37:15.810Z,79.72
2022-11-23T06:39:42.253Z,78.85
2022-11-23T06:42:37.129Z,72.97
2022-11-23T06:44:55.353Z,73.95
2022-11-23T06:47:26.087Z,79.38
2022-11-23T06:49:53.183Z,79.55
2022-11-23T06:52:20.005Z,76.72
2022-11-23T06:54:47.132Z,88.40
2022-11-23T06:57:13.676Z,80.13
2022-11-23T06:59:44.491Z,76.40
2022-11-23T07:02:12.179Z,87.32
2022-11-23T07:04:38.626Z,75.30
2022-11-23T07:07:05.252Z,78.43
2022-11-23T07:09:32.035Z,78.38
2022-11-23T07:11:58.920Z,76.22
2022-11-23T07:14:25.488Z,79.40
2022-11-23T07:16:51.967Z,72.75
2022-11-23T07:19:18.482Z,77.78
2022-11-23T07:21:45.711Z,72.60
2022-11-23T07:24:12.254Z,73.05
2022-11-23T07:26:38.651Z,70.45
2022-11-23T07:29:05.086Z,78.53
2022-11-23T07:31:32.251Z,77.22
2022-11-23T07:33:58.711Z,74.47
2022-11-23T07:36:25.149Z,75.85
2022-11-23T07:38:51.658Z,73.18
2022-11-23T07:41:18.327Z,77.57
2022-11-23T07:43:44.807Z,77.68
2022-11-23T07:46:11.257Z,77.50
2022-11-23T07:48:37.867Z,77.80
2022-11-23T07:51:04.500Z,67.55
2022-11-23T07:53:30.982Z,74.95
2022-11-23T07:56:01.005Z,74.63
2022-11-23T07:58:27.566Z,80.95
2022-11-23T08:00:54.113Z,78.72
2022-11-23T08:03:27.744Z,77.50
2022-11-23T08:05:54.837Z,63.75
2022-11-23T08:08:21.277Z,85.68
2022-11-23T08:10:52.971Z,77.35
2022-11-23T08:13:20.378Z,80.70
2022-11-23T08:15:53.416Z,63.72
2022-11-23T08:18:20.792Z,74.63
2022-11-23T08:20:47.238Z,82.43
2022-11-23T08:23:13.696Z,67.32
2022-11-23T08:25:40.127Z,74.35
2022-11-23T08:28:06.632Z,76.53
2022-11-23T08:30:34.544Z,66.38
2022-11-23T08:33:05.861Z,71.63
2022-11-23T08:35:36.936Z,69.38
2022-11-23T08:38:07.866Z,61.38
2022-11-23T08:40:35.157Z,67.45
2022-11-23T08:43:01.699Z,66.88
2022-11-23T08:45:28.599Z,64.88
2022-11-23T08:47:59.624Z,65.78
2022-11-23T08:50:26.122Z,79.45
2022-11-23T08:52:57.033Z,68.95
2022-11-23T08:55:24.555Z,67.15
2022-11-23T08:57:50.992Z,62.45
2022-11-23T09:00:17.797Z,64.57
2022-11-23T09:02:44.234Z,60.65
2022-11-23T09:05:11.383Z,65.03
2022-11-23T09:07:37.883Z,62.85
2022-11-23T09:10:04.911Z,62.28
2022-11-23T09:12:31.336Z,60.45
2022-11-23T09:14:58.041Z,55.75
2022-11-23T09:17:24.562Z,56.85
2022-11-23T09:19:51.522Z,55.22
2022-11-23T09:22:17.965Z,62.83
2022-11-23T09:24:44.463Z,54.50
2022-11-23T09:27:10.991Z,49.92
2022-11-23T09:29:37.462Z,50.88
2022-11-23T09:32:04.029Z,59.28
2022-11-23T09:34:30.620Z,48.80
2022-11-23T09:36:57.988Z,51.50
2022-11-23T09:39:24.531Z,46.15
2022-11-23T09:42:13.526Z,49.03
2022-11-23T09:44:56.436Z,38.58
2022-11-23T09:48:00.973Z,36.75
2022-11-23T09:50:34.300Z,35.63
2022-11-23T09:53:07.620Z,37.28
2022-11-23T09:55:39.849Z,33.97
2022-11-23T09:58:10.474Z,38.47
2022-11-23T10:01:04.591Z,33.97
2022-11-23T10:03:43.901Z,31.33
2022-11-23T10:06:23.867Z,29.75
2022-11-23T10:09:27.744Z,25.58
2022-11-23T10:12:05.238Z,32.90
2022-11-23T10:14:50.697Z,33.42
2022-11-23T10:17:43.743Z,29.55
2022-11-23T10:20:38.622Z,36.20
2022-11-23T10:23:17.415Z,33.10
2022-11-23T10:25:52.438Z,27.92
2022-11-23T10:28:22.411Z,31.15
2022-11-23T10:30:55.337Z,25.45
2022-11-23T10:33:37.813Z,30.33
2022-11-23T10:36:04.380Z,38.20
2022-11-23T10:38:32.632Z,35.85
2022-11-23T10:41:09.176Z,32.33
2022-11-23T10:43:38.343Z,29.08
2022-11-23T10:46:25.273Z,31.95
2022-11-23T10:48:53.395Z,36.28
2022-11-23T10:56:47.651Z,32.72
2022-11-23T10:59:38.844Z,33.60
2022-11-23T11:02:05.317Z,30.52
2022-11-23T11:04:32.060Z,31.95
2022-11-23T11:07:31.237Z,30.88
2022-11-23T11:10:04.081Z,35.50
2022-11-23T11:12:34.399Z,32.25
2022-11-23T11:15:12.068Z,28.88
2022-11-23T11:17:40.945Z,31.50
2022-11-23T11:20:33.314Z,28.77
2022-11-23T11:23:03.902Z,30.80
2022-11-23T11:25:36.165Z,29.48
2022-11-23T11:28:06.312Z,28.52
2022-11-23T11:30:45.913Z,32.60
2022-11-23T11:33:19.978Z,35.47
2022-11-23T11:35:51.782Z,30.75
2022-11-23T11:38:18.166Z,28.75
2022-11-23T11:40:49.870Z,28.17
2022-11-23T11:48:42.941Z,30.20
2022-11-23T11:51:28.296Z,25.85
2022-11-23T11:54:33.628Z,31.92
2022-11-23T12:27:36.807Z,30.52
2022-11-23T12:38:15.646Z,31.85
2022-11-23T12:41:29.975Z,32.95
2022-11-23T12:44:08.423Z,28.38
2022-11-23T12:46:58.588Z,28.33
2022-11-23T12:49:43.073Z,32.10
2022-11-23T12:52:31.515Z,34.03
2022-11-23T12:55:19.821Z,24.73
2022-11-23T12:57:58.597Z,28.20
2022-11-23T13:00:29.732Z,34.67
2022-11-23T13:02:56.119Z,29.85
2022-11-23T13:06:13.047Z,31.15
2022-11-23T13:08:54.543Z,31.83
2022-11-23T13:11:39.334Z,27.33
2022-11-23T13:14:14.668Z,29.80
2022-11-23T13:16:57.679Z,29.95
2022-11-23T13:19:53.832Z,32.20
2022-11-23T13:22:21.947Z,28.90
2022-11-23T13:25:27.698Z,35.75
2022-11-23T13:27:56.728Z,32.67
2022-11-23T13:33:37.841Z,34.10
2022-11-23T13:36:11.208Z,34.30
2022-11-23T13:38:40.250Z,27.67
2022-11-23T13:41:34.770Z,31.30
2022-11-23T13:44:24.261Z,35.88
2022-11-23T13:47:16.041Z,33.75
2022-11-23T13:49:46.156Z,34.08
2022-11-23T13:52:21.753Z,31.25
2022-11-23T13:55:10.607Z,37.28
2022-11-23T13:57:39.023Z,29.27
2022-11-23T14:00:43.193Z,34.85
2022-11-23T14:03:49.931Z,32.83
2022-11-23T14:06:35.011Z,29.05
2022-11-23T14:09:30.315Z,33.65
2022-11-23T14:12:12.036Z,29.40
2022-11-23T14:17:27.432Z,29.95
2022-11-23T14:22:49.085Z,26.85
2022-11-23T14:25:27.851Z,30.98
2022-11-23T14:28:07.991Z,29.02
2022-11-23T14:30:47.779Z,37.55
2022-11-23T14:33:32.952Z,30.13
2022-11-23T14:39:28.969Z,31.20
2022-11-23T14:42:00.632Z,34.50
2022-11-23T14:47:06.782Z,37.58
2022-11-23T14:49:33.805Z,33.47
2022-11-23T14:52:02.434Z,34.70
2022-11-23T14:54:30.547Z,37.85
2022-11-23T14:57:00.405Z,29.33
2022-11-23T14:59:32.959Z,35.65
2022-11-23T15:02:13.595Z,36.90
2022-11-23T15:04:59.768Z,34.88
2022-11-23T15:07:29.990Z,38.75
2022-11-23T15:09:56.415Z,36.75
2022-11-23T15:12:26.284Z,37.75
2022-11-23T15:14:54.091Z,41.97
2022-11-23T15:17:22.136Z,36.47
2022-11-23T15:19:56.252Z,36.47
2022-11-23T15:22:24.492Z,33.38
2022-11-23T15:24:51.377Z,41.65
2022-11-23T15:27:25.482Z,40.80
2022-11-23T15:29:57.964Z,39.25
2022-11-23T15:32:33.239Z,34.20
2022-11-23T15:35:07.904Z,34.05
2022-11-23T15:37:43.550Z,37.05
2022-11-23T15:40:17.731Z,34.70
2022-11-23T15:42:46.750Z,30.77
2022-11-23T15:45:44.300Z,35.70
2022-11-23T15:48:26.745Z,36.00
2022-11-23T15:50:54.190Z,32.33
2022-11-23T15:53:49.115Z,37.63
2022-11-23T15:56:23.653Z,38.60
2022-11-23T15:58:52.160Z,36.65
2022-11-23T16:01:19.488Z,35.67
2022-11-23T16:03:52.456Z,34.05
2022-11-23T16:06:39.054Z,33.67
2022-11-23T16:09:54.462Z,36.80
2022-11-23T16:12:34.040Z,36.00
2022-11-23T16:15:32.822Z,33.28
2022-11-23T16:18:02.712Z,33.83
2022-11-23T16:20:29.896Z,39.65
2022-11-23T16:22:59.504Z,33.78
2022-11-23T16:25:31.759Z,34.25
2022-11-23T16:28:04.397Z,37.15
2022-11-23T16:30:43.305Z,38.03
2022-11-23T16:33:15.063Z,31.58
2022-11-23T16:35:41.560Z,37.05
2022-11-23T16:38:08.100Z,35.90
2022-11-23T16:40:34.770Z,36.75
2022-11-23T16:43:01.332Z,36.60
2022-11-23T16:45:27.873Z,39.22
2022-11-23T16:48:00.346Z,32.90
2022-11-23T16:50:31.653Z,34.53
2022-11-23T16:53:02.125Z,33.60
2022-11-23T16:55:28.555Z,36.60
2022-11-23T16:57:56.016Z,37.10
2022-11-23T17:00:23.491Z,35.63
2022-11-23T17:05:25.141Z,38.42
2022-11-23T17:07:51.884Z,39.53
2022-11-23T17:10:18.480Z,37.55
2022-11-23T17:12:52.684Z,36.67
2022-11-23T17:15:20.794Z,37.58
2022-11-23T17:17:47.235Z,37.30
2022-11-23T17:20:14.877Z,41.03
2022-11-23T17:22:41.382Z,47.72
2022-11-23T17:25:14.397Z,42.42
2022-11-23T17:27:42.239Z,37.25
2022-11-23T17:30:21.156Z,41.67
2022-11-23T17:32:49.120Z,40.30
2022-11-23T17:35:16.551Z,44.22
2022-11-23T17:37:43.265Z,45.17
2022-11-23T17:40:21.518Z,40.13
2022-11-23T17:42:48.199Z,39.83
2022-11-23T17:45:15.098Z,48.72
2022-11-23T17:47:43.945Z,45.95
2022-11-23T17:50:17.477Z,47.20
2022-11-23T17:52:47.830Z,42.28
2022-11-23T17:55:15.332Z,52.38
2022-11-23T17:57:42.112Z,49.80
2022-11-23T18:00:19.430Z,46.78
2022-11-23T18:02:46.176Z,47.10
2022-11-23T18:05:16.528Z,44.22
2022-11-23T18:07:48.544Z,41.63
2022-11-23T18:10:15.628Z,47.83
2022-11-23T18:12:44.442Z,44.50
2022-11-23T18:15:11.455Z,49.65
2022-11-23T18:17:37.907Z,51.95
2022-11-23T18:20:08.376Z,47.92
2022-11-23T18:22:35.709Z,48.40
2022-11-23T18:25:02.920Z,50.47
2022-11-23T18:27:32.038Z,46.97
2022-11-23T18:29:58.678Z,49.00
2022-11-23T18:32:25.154Z,45.10
2022-11-23T18:34:51.569Z,47.78
2022-11-23T18:37:17.998Z,49.88
2022-11-23T18:39:44.404Z,49.65
2022-11-23T18:42:10.986Z,50.60
2022-11-23T18:44:37.444Z,44.05
2022-11-23T18:47:04.018Z,53.38
2022-11-23T18:49:30.801Z,57.33
2022-11-23T18:51:57.445Z,53.33
2022-11-23T18:54:23.867Z,51.10
2022-11-23T18:56:50.332Z,48.85
2022-11-23T18:59:42.026Z,49.30
2022-11-23T19:02:04.579Z,50.15
2022-11-23T19:04:32.538Z,55.33
2022-11-23T19:06:59.221Z,54.33
2022-11-23T19:09:25.624Z,53.40
2022-11-23T19:11:53.254Z,65.93
2022-11-23T19:14:19.683Z,56.95
2022-11-23T19:16:46.089Z,55.97
2022-11-23T19:19:12.673Z,59.45
2022-11-23T19:21:39.258Z,63.25
2022-11-23T19:24:06.710Z,63.70
2022-11-23T19:26:36.702Z,55.00
2022-11-23T19:29:03.690Z,64.13
2022-11-23T19:31:31.113Z,56.30
2022-11-23T19:34:02.707Z,62.30
2022-11-23T19:38:57.487Z,66.35
2022-11-23T19:41:29.574Z,61.75
2022-11-23T19:43:57.995Z,63.55
2022-11-23T19:46:25.018Z,62.13
2022-11-23T19:48:51.578Z,68.15
2022-11-23T19:51:20.002Z,62.97
2022-11-23T19:53:49.112Z,65.28
2022-11-23T19:56:25.195Z,68.32
2022-11-23T19:58:54.190Z,70.45
2022-11-23T20:01:22.778Z,62.70
2022-11-23T20:03:53.360Z,67.57
2022-11-23T20:06:24.040Z,58.70
2022-11-23T20:08:55.562Z,48.07
2022-11-23T20:13:48.515Z,79.93
2022-11-23T20:16:17.540Z,72.25
2022-11-23T20:18:45.992Z,75.13
2022-11-23T20:21:14.489Z,78.47
2022-11-23T20:23:42.150Z,72.80
2022-11-23T20:26:11.038Z,73.10
2022-11-23T20:28:37.542Z,73.38
2022-11-23T20:31:05.637Z,79.47
2022-11-23T20:33:32.517Z,70.80
2022-11-23T20:36:09.450Z,73.65
2022-11-23T20:38:38.392Z,70.53
2022-11-23T20:41:26.451Z,74.35
2022-11-23T20:43:58.828Z,91.82
2022-11-23T20:46:53.828Z,80.55
2022-11-23T20:49:13.240Z,70.45
2022-11-23T20:51:39.681Z,74.63
2022-11-23T20:54:06.151Z,76.97
2022-11-23T20:56:32.744Z,76.22
2022-11-23T20:59:04.186Z,74.50
2022-11-23T21:01:30.824Z,78.97
2022-11-23T21:03:58.837Z,83.60
2022-11-23T21:06:27.049Z,76.07
2022-11-23T21:08:54.682Z,76.97
2022-11-23T21:11:44.611Z,82.70
2022-11-23T21:14:17.867Z,82.20
2022-11-23T21:16:58.635Z,78.15
2022-11-23T21:19:27.366Z,78.00
2022-11-23T21:21:54.080Z,85.47
2022-11-23T21:24:21.353Z,85.85
2022-11-23T21:26:48.432Z,83.80
2022-11-23T21:29:18.874Z,76.32
2022-11-23T21:31:47.039Z,76.82
2022-11-23T21:34:21.836Z,85.13
2022-11-23T21:36:48.589Z,78.40
2022-11-23T21:39:15.882Z,81.25
2022-11-23T21:41:42.458Z,82.00
2022-11-23T21:44:10.329Z,76.45
2022-11-23T21:46:38.731Z,77.35
2022-11-23T21:49:08.555Z,88.15
2022-11-23T21:51:36.291Z,76.80
2022-11-23T21:54:05.978Z,84.07
2022-11-23T21:56:33.369Z,83.43
2022-11-23T21:58:59.970Z,75.30
2022-11-23T22:01:31.560Z,79.18
2022-11-23T22:06:26.468Z,85.22
2022-11-23T22:08:55.187Z,87.20
2022-11-23T22:11:32.279Z,85.10
2022-11-23T22:14:00.811Z,83.10
2022-11-23T22:16:28.800Z,89.03
2022-11-23T22:18:56.322Z,88.97
2022-11-23T22:21:24.897Z,88.85
2022-11-23T22:23:51.473Z,89.13
2022-11-23T22:26:19.465Z,87.32
2022-11-23T22:28:50.964Z,90.72
2022-11-23T22:33:45.797Z,93.68
2022-11-23T22:36:20.119Z,76.50
2022-11-23T22:38:46.804Z,88.22
2022-11-23T22:41:15.736Z,82.40
2022-11-23T22:43:42.783Z,85.65
2022-11-23T22:46:18.152Z,84.13
2022-11-23T22:48:47.042Z,82.82
2022-11-23T22:51:19.162Z,90.32
2022-11-23T22:53:46.022Z,90.82
2022-11-23T22:56:17.387Z,92.35
2022-11-23T22:58:45.527Z,85.97
2022-11-23T23:01:17.024Z,85.63
2022-11-23T23:06:16.803Z,88.72
2022-11-23T23:08:44.299Z,90.35
2022-11-23T23:11:11.092Z,82.45
2022-11-23T23:13:37.685Z,94.00
2022-11-23T23:16:06.846Z,94.53
2022-11-23T23:18:33.348Z,90.10
2022-11-23T23:21:01.442Z,91.00
2022-11-23T23:23:28.041Z,93.72
2022-11-23T23:25:54.722Z,100.82
2022-11-23T23:28:21.473Z,90.40
2022-11-23T23:30:48.006Z,97.07
2022-11-23T23:33:14.521Z,94.45
2022-11-23T23:35:41.108Z,91.93
2022-11-23T23:38:07.649Z,100.60
2022-11-23T23:40:34.120Z,88.78
2022-11-23T23:43:00.864Z,95.72
2022-11-23T23:45:27.354Z,94.47
2022-11-23T23:47:53.812Z,100.07
2022-11-23T23:50:20.214Z,99.22
2022-11-23T23:52:46.584Z,90.28
2022-11-23T23:55:12.977Z,92.93
2022-11-23T23:57:39.378Z,97.32
